createdAt,value
2019-03-06T00:01:25.499Z,12.50
2019-03-06T00:05:30.239Z,16.57
2019-03-06T00:09:35.081Z,20.35
2019-03-06T00:13:42.977Z,16.62
2019-03-06T00:17:47.408Z,14.60
2019-03-06T00:21:52.404Z,18.27
2019-03-06T00:26:00.053Z,18.85
2019-03-06T00:30:05.229Z,18.95
2019-03-06T00:34:13.225Z,15.00
2019-03-06T00:38:18.112Z,16.35
2019-03-06T00:42:23.313Z,16.77
2019-03-06T00:46:27.831Z,16.52
2019-03-06T00:50:33.302Z,19.00
2019-03-06T00:54:38.039Z,15.13
2019-03-06T00:58:42.427Z,14.58
2019-03-06T01:02:47.021Z,15.38
2019-03-06T01:06:51.576Z,16.87
2019-03-06T01:10:56.480Z,15.35
2019-03-06T01:15:01.420Z,16.40
2019-03-06T01:19:05.879Z,15.55
2019-03-06T01:23:10.347Z,15.10
2019-03-06T01:27:15.103Z,12.53
2019-03-06T01:31:19.949Z,16.70
2019-03-06T01:35:37.137Z,18.73
2019-03-06T01:40:13.380Z,15.58
2019-03-06T01:44:25.177Z,20.88
2019-03-06T01:48:29.947Z,17.60
2019-03-06T01:52:34.402Z,19.42
2019-03-06T01:56:39.031Z,17.05
2019-03-06T02:00:43.897Z,14.80
2019-03-06T02:04:48.593Z,15.10
2019-03-06T02:08:53.141Z,16.02
2019-03-06T02:12:57.647Z,19.20
2019-03-06T02:17:02.372Z,19.98
2019-03-06T02:21:06.772Z,23.40
2019-03-06T02:25:11.179Z,18.87
2019-03-06T02:29:15.590Z,21.77
2019-03-06T02:33:20.479Z,16.97
2019-03-06T02:37:25.384Z,17.07
2019-03-06T02:41:30.634Z,18.32
2019-03-06T02:45:35.050Z,20.15
2019-03-06T02:49:40.659Z,23.05
2019-03-06T02:53:45.335Z,19.65
2019-03-06T02:57:55.432Z,24.85
2019-03-06T03:02:17.946Z,19.40
2019-03-06T03:06:27.904Z,19.32
2019-03-06T03:10:32.375Z,22.10
2019-03-06T03:14:37.487Z,21.17
2019-03-06T03:18:42.671Z,19.55
2019-03-06T03:22:47.182Z,19.50
2019-03-06T03:26:51.957Z,17.10
2019-03-06T03:30:56.789Z,23.35
2019-03-06T03:35:01.658Z,22.22
2019-03-06T03:39:07.807Z,24.15
2019-03-06T03:43:12.816Z,21.55
2019-03-06T03:47:17.399Z,26.70
2019-03-06T03:51:21.955Z,22.77
2019-03-06T03:55:27.253Z,24.40
2019-03-06T03:59:32.317Z,24.15
2019-03-06T04:03:37.021Z,22.27
2019-03-06T04:07:41.431Z,21.15
2019-03-06T04:11:46.238Z,22.35
2019-03-06T04:15:51.398Z,22.93
2019-03-06T04:19:56.531Z,30.90
2019-03-06T04:24:01.307Z,21.25
2019-03-06T04:28:05.700Z,23.15
2019-03-06T04:32:10.115Z,23.35
2019-03-06T04:36:15.374Z,22.27
2019-03-06T04:40:20.123Z,26.93
2019-03-06T04:44:24.885Z,26.75
2019-03-06T04:48:29.720Z,25.72
2019-03-06T04:52:34.139Z,23.35
2019-03-06T04:56:38.904Z,24.35
2019-03-06T05:00:43.704Z,25.50
2019-03-06T05:04:49.279Z,26.30
2019-03-06T05:08:53.664Z,24.63
2019-03-06T05:12:58.527Z,24.23
2019-03-06T05:17:11.599Z,27.42
2019-03-06T05:21:16.252Z,26.12
2019-03-06T05:25:20.983Z,29.48
2019-03-06T05:29:25.460Z,25.48
2019-03-06T05:33:29.948Z,33.25
2019-03-06T05:38:00.878Z,31.75
2019-03-06T05:42:05.365Z,33.75
2019-03-06T05:46:10.191Z,34.58
2019-03-06T05:50:15.264Z,33.70
2019-03-06T05:54:20.679Z,33.20
2019-03-06T05:58:25.993Z,30.65
2019-03-06T06:02:30.829Z,26.93
2019-03-06T06:06:35.362Z,29.70
2019-03-06T06:10:40.154Z,27.85
2019-03-06T06:14:44.709Z,28.75
2019-03-06T06:18:49.528Z,30.57
2019-03-06T06:23:25.435Z,29.02
2019-03-06T06:27:30.686Z,28.83
2019-03-06T06:31:36.227Z,23.92
2019-03-06T06:35:41.051Z,30.23
2019-03-06T06:39:45.815Z,27.65
2019-03-06T06:43:50.651Z,28.80
2019-03-06T06:48:09.534Z,31.68
2019-03-06T06:52:50.540Z,28.98
2019-03-06T06:57:29.614Z,31.50
2019-03-06T07:02:19.430Z,30.82
2019-03-06T07:06:55.673Z,30.32
2019-03-06T07:11:13.028Z,29.65
2019-03-06T07:15:50.000Z,30.08
2019-03-06T07:20:20.556Z,27.05
2019-03-06T07:24:34.407Z,21.70
2019-03-06T07:28:50.526Z,25.92
2019-03-06T07:33:23.614Z,22.93
2019-03-06T07:37:42.999Z,27.37
2019-03-06T07:41:59.058Z,21.68
2019-03-06T07:46:16.568Z,25.52
2019-03-06T07:50:49.539Z,24.18
2019-03-06T07:55:12.144Z,19.70
2019-03-06T07:59:17.145Z,22.45
2019-03-06T08:03:36.247Z,20.95
2019-03-06T08:07:41.265Z,18.77
2019-03-06T08:11:55.561Z,17.50
2019-03-06T08:20:44.440Z,19.15
2019-03-06T08:25:05.368Z,19.90
2019-03-06T08:29:10.976Z,22.75
2019-03-06T08:33:18.507Z,22.40
2019-03-06T08:37:24.192Z,18.57
2019-03-06T08:41:28.638Z,14.03
2019-03-06T08:45:44.187Z,12.90
2019-03-06T08:50:08.341Z,12.68
2019-03-06T08:54:20.030Z,14.60
2019-03-06T08:58:35.312Z,13.00
2019-03-06T09:02:58.017Z,21.07
2019-03-06T09:07:15.692Z,12.37
2019-03-06T09:11:29.493Z,11.00
2019-03-06T09:20:07.949Z,10.43
2019-03-06T09:24:31.448Z,11.88
2019-03-06T09:29:01.085Z,11.75
2019-03-06T09:37:46.541Z,8.53
2019-03-06T09:42:07.263Z,10.68
2019-03-06T09:46:20.811Z,9.60
2019-03-06T09:50:49.713Z,13.05
2019-03-06T09:55:17.878Z,11.83
2019-03-06T09:59:27.957Z,11.97
2019-03-06T10:03:54.711Z,11.68
2019-03-06T10:08:11.030Z,8.33
2019-03-06T10:12:25.100Z,10.20
2019-03-06T10:16:35.724Z,12.10
2019-03-06T10:20:40.693Z,10.43
2019-03-06T10:24:45.571Z,8.98
2019-03-06T10:28:50.446Z,12.18
2019-03-06T10:32:55.297Z,13.25
2019-03-06T10:37:00.460Z,9.85
2019-03-06T10:41:06.130Z,13.22
2019-03-06T10:45:10.896Z,11.38
2019-03-06T10:49:15.944Z,12.33
2019-03-06T10:53:20.465Z,10.15
2019-03-06T10:57:25.284Z,7.87
2019-03-06T11:01:30.683Z,11.55
2019-03-06T11:05:35.950Z,7.87
2019-03-06T11:09:40.815Z,16.75
2019-03-06T11:13:45.591Z,9.68
2019-03-06T11:17:50.632Z,11.80
2019-03-06T11:21:57.177Z,7.92
2019-03-06T11:26:02.029Z,7.40
2019-03-06T11:30:10.693Z,8.48
2019-03-06T11:34:17.207Z,8.20
2019-03-06T11:38:23.587Z,7.62
2019-03-06T11:42:28.067Z,6.53
2019-03-06T11:46:33.546Z,8.90
2019-03-06T11:50:43.476Z,9.15
2019-03-06T11:55:06.345Z,7.15
2019-03-06T11:59:09.708Z,7.42
2019-03-06T12:03:15.844Z,7.40
2019-03-06T12:07:26.694Z,6.35
2019-03-06T12:11:32.179Z,6.72
2019-03-06T12:15:37.296Z,6.45
2019-03-06T12:19:43.378Z,6.42
2019-03-06T12:23:48.547Z,9.65
2019-03-06T12:27:53.601Z,7.53
2019-03-06T12:31:58.011Z,7.97
2019-03-06T12:36:05.706Z,6.75
2019-03-06T12:40:14.711Z,7.83
2019-03-06T12:44:19.624Z,7.97
2019-03-06T12:48:24.602Z,5.50
2019-03-06T12:52:30.916Z,6.22
2019-03-06T12:56:35.949Z,5.70
2019-03-06T13:00:40.896Z,5.78
2019-03-06T13:04:45.645Z,7.65
2019-03-06T13:08:50.927Z,5.85
2019-03-06T13:12:56.363Z,4.25
2019-03-06T13:17:00.907Z,6.25
2019-03-06T13:21:06.669Z,4.83
2019-03-06T13:25:11.654Z,3.87
2019-03-06T13:29:16.829Z,5.12
2019-03-06T13:33:31.908Z,4.80
2019-03-06T13:37:36.750Z,3.85
2019-03-06T13:41:41.479Z,4.25
2019-03-06T13:45:46.427Z,5.25
2019-03-06T13:49:51.397Z,4.55
2019-03-06T13:53:57.261Z,4.80
2019-03-06T13:58:01.722Z,3.22
2019-03-06T14:02:07.626Z,4.80
2019-03-06T14:06:12.563Z,3.33
2019-03-06T14:10:19.095Z,3.77
2019-03-06T14:14:24.331Z,6.05
2019-03-06T14:18:28.919Z,5.42
2019-03-06T14:22:34.307Z,5.12
2019-03-06T14:26:38.775Z,5.72
2019-03-06T14:30:43.492Z,6.67
2019-03-06T14:34:48.827Z,3.20
2019-03-06T14:38:53.625Z,7.45
2019-03-06T14:42:59.582Z,6.03
2019-03-06T14:47:03.978Z,6.78
2019-03-06T14:51:09.466Z,5.20
2019-03-06T14:55:14.261Z,7.78
2019-03-06T14:59:19.321Z,5.80
2019-03-06T15:03:24.566Z,9.33
2019-03-06T15:07:29.308Z,5.60
2019-03-06T15:11:34.050Z,6.80
2019-03-06T15:15:38.961Z,5.62
2019-03-06T15:19:44.136Z,5.42
2019-03-06T15:23:49.229Z,7.97
2019-03-06T15:27:54.103Z,6.92
2019-03-06T15:31:59.443Z,6.30
2019-03-06T15:36:04.434Z,5.87
2019-03-06T15:40:12.543Z,7.22
2019-03-06T15:44:17.062Z,6.12
2019-03-06T15:48:23.463Z,7.40
2019-03-06T15:52:28.027Z,5.28
2019-03-06T15:56:32.766Z,9.20
2019-03-06T16:00:45.727Z,6.70
2019-03-06T16:04:43.392Z,8.65
2019-03-06T16:08:47.842Z,6.40
2019-03-06T16:12:53.115Z,6.97
2019-03-06T16:16:58.530Z,8.23
2019-03-06T16:21:03.348Z,10.32
2019-03-06T16:25:08.714Z,12.18
2019-03-06T16:29:24.263Z,13.72
2019-03-06T16:33:29.272Z,9.65
2019-03-06T16:37:35.795Z,10.80
2019-03-06T16:41:40.587Z,8.78
2019-03-06T16:45:45.471Z,10.35
2019-03-06T16:49:50.822Z,10.00
2019-03-06T16:53:57.044Z,11.85
2019-03-06T16:58:01.892Z,11.93
2019-03-06T17:02:09.894Z,12.13
2019-03-06T17:06:15.053Z,10.43
2019-03-06T17:10:20.104Z,10.58
2019-03-06T17:14:25.152Z,10.70
2019-03-06T17:18:30.366Z,12.58
2019-03-06T17:22:35.419Z,11.45
2019-03-06T17:26:41.018Z,11.35
2019-03-06T17:30:45.455Z,14.50
2019-03-06T17:34:50.136Z,12.50
2019-03-06T17:38:55.285Z,10.15
2019-03-06T17:43:00.194Z,14.60
2019-03-06T17:47:04.737Z,11.85
2019-03-06T17:51:11.475Z,10.72
2019-03-06T17:55:16.903Z,13.38
2019-03-06T17:59:21.417Z,16.07
2019-03-06T18:03:35.012Z,12.03
2019-03-06T18:07:39.575Z,10.65
2019-03-06T18:11:44.704Z,10.88
2019-03-06T18:15:49.308Z,13.13
2019-03-06T18:19:53.859Z,9.93
2019-03-06T18:23:59.010Z,11.63
2019-03-06T18:28:04.149Z,9.83
2019-03-06T18:32:13.520Z,9.70
2019-03-06T18:36:18.181Z,9.85
2019-03-06T18:40:22.765Z,8.38
2019-03-06T18:44:27.288Z,9.28
2019-03-06T18:48:31.803Z,9.18
2019-03-06T18:52:36.590Z,10.58
2019-03-06T18:56:42.786Z,8.60
2019-03-06T19:00:47.449Z,6.90
2019-03-06T19:04:52.607Z,9.38
2019-03-06T19:08:57.596Z,11.05
2019-03-06T19:13:02.622Z,9.38
2019-03-06T19:17:07.255Z,9.30
2019-03-06T19:21:12.332Z,7.30
2019-03-06T19:25:16.924Z,9.75
2019-03-06T19:29:22.209Z,10.50
2019-03-06T19:33:27.125Z,10.23
2019-03-06T19:37:32.644Z,7.50
2019-03-06T19:41:37.486Z,10.30
2019-03-06T19:45:42.017Z,9.78
2019-03-06T19:49:46.489Z,5.97
2019-03-06T19:53:51.596Z,8.55
2019-03-06T19:57:57.716Z,8.88
2019-03-06T20:02:02.229Z,6.70
2019-03-06T20:06:07.127Z,9.35
2019-03-06T20:10:12.012Z,7.22
2019-03-06T20:14:17.017Z,8.10
2019-03-06T20:18:21.775Z,8.18
2019-03-06T20:22:26.565Z,6.70
2019-03-06T20:26:31.117Z,8.55
2019-03-06T20:30:35.998Z,7.67
2019-03-06T20:34:41.367Z,8.03
2019-03-06T20:38:45.867Z,6.95
2019-03-06T20:42:50.523Z,8.43
2019-03-06T20:46:55.406Z,9.43
2019-03-06T20:51:00.797Z,8.00
2019-03-06T20:55:06.122Z,6.22
2019-03-06T20:59:10.813Z,8.90
2019-03-06T21:03:15.275Z,6.85
2019-03-06T21:07:20.506Z,7.15
2019-03-06T21:11:25.013Z,5.95
2019-03-06T21:15:29.517Z,6.55
2019-03-06T21:19:36.707Z,10.53
2019-03-06T21:23:41.679Z,8.08
2019-03-06T21:27:46.649Z,6.22
2019-03-06T21:31:51.307Z,9.80
2019-03-06T21:35:55.867Z,9.23
2019-03-06T21:40:01.058Z,6.45
2019-03-06T21:44:05.715Z,8.45
2019-03-06T21:48:10.149Z,8.38
2019-03-06T21:52:15.307Z,8.03
2019-03-06T21:56:20.224Z,8.70
2019-03-06T22:00:25.074Z,8.05
2019-03-06T22:04:29.935Z,7.83
2019-03-06T22:08:34.798Z,9.68
2019-03-06T22:12:39.979Z,6.60
2019-03-06T22:16:44.886Z,7.33
2019-03-06T22:20:50.632Z,6.78
2019-03-06T22:24:55.450Z,6.53
2019-03-06T22:29:00.492Z,7.40
2019-03-06T22:33:05.195Z,9.58
2019-03-06T22:37:09.775Z,6.47
2019-03-06T22:41:14.590Z,6.67
2019-03-06T22:45:19.272Z,6.37
2019-03-06T22:49:23.746Z,7.45
2019-03-06T22:53:28.511Z,6.92
2019-03-06T22:57:33.571Z,8.53
2019-03-06T23:01:39.433Z,7.47
2019-03-06T23:05:43.924Z,27.58
2019-03-06T23:09:48.410Z,22.22
2019-03-06T23:13:53.435Z,15.43
2019-03-06T23:17:58.557Z,15.65
2019-03-06T23:22:03.129Z,16.35
2019-03-06T23:26:07.621Z,17.27
2019-03-06T23:30:13.198Z,11.85
2019-03-06T23:34:18.201Z,10.48
2019-03-06T23:38:22.704Z,8.98
2019-03-06T23:42:28.058Z,10.08
2019-03-06T23:46:33.535Z,9.78
2019-03-06T23:50:38.346Z,8.00
2019-03-06T23:54:42.850Z,6.40
2019-03-06T23:58:48.046Z,6.83
